Time;durP1;ratioP1;P1;durP2;ratioP2;P2;SDS_P1;SDS_P2;PMS_P1;PMS_P2;Temp;Humidity;BMP_temperature;BMP_pressure;BME280_temperature;BME280_humidity;BME280_pressure;Samples;Min_cycle;Max_cycle;Signal;HPM_P1;HPM_P2
2021/07/14 00:02:05;;;;;;;15.50;14.23;;;24.60;99.90;;;;;;5073666;28;20807;-64
2021/07/14 00:04:32;;;;;;;14.90;13.77;;;24.60;99.90;;;;;;5073030;28;20473;-63
2021/07/14 00:07:01;;;;;;;15.17;13.90;;;24.60;99.90;;;;;;5073718;28;20474;-62
2021/07/14 00:09:27;;;;;;;15.30;14.03;;;24.60;99.90;;;;;;5072442;28;20547;-63
2021/07/14 00:11:57;;;;;;;15.63;14.23;;;24.50;99.90;;;;;;5073703;28;20978;-63
2021/07/14 00:14:35;;;;;;;13.57;12.57;;;24.50;99.90;;;;;;5072948;28;20481;-63
2021/07/14 00:17:18;;;;;;;13.90;12.90;;;24.50;99.90;;;;;;5066285;28;20542;-63
2021/07/14 00:22:34;;;;;;;15.27;14.03;;;24.50;99.90;;;;;;5070326;28;20546;-62
2021/07/14 00:25:02;;;;;;;15.30;14.20;;;24.40;99.90;;;;;;5071061;28;21010;-63
2021/07/14 00:27:29;;;;;;;15.77;14.57;;;24.40;99.90;;;;;;5072873;28;20459;-62
2021/07/14 00:29:58;;;;;;;16.37;15.17;;;24.30;99.90;;;;;;5072554;28;20466;-63
2021/07/14 00:32:26;;;;;;;16.37;14.97;;;24.30;99.90;;;;;;5072811;28;20474;-62
2021/07/14 00:34:54;;;;;;;15.57;14.47;;;24.30;99.90;;;;;;5072029;28;20975;-63
2021/07/14 00:37:22;;;;;;;16.50;15.20;;;24.30;99.90;;;;;;5072303;28;20470;-62
2021/07/14 00:39:55;;;;;;;17.57;16.03;;;24.30;99.90;;;;;;5073057;28;20924;-63
2021/07/14 00:42:25;;;;;;;16.77;15.47;;;24.30;99.90;;;;;;5072959;28;20454;-62
2021/07/14 00:44:52;;;;;;;16.70;15.40;;;24.30;99.90;;;;;;5072495;28;21246;-63
2021/07/14 00:47:25;;;;;;;16.47;15.27;;;24.30;99.90;;;;;;5071098;28;20855;-62
2021/07/14 00:49:52;;;;;;;16.10;14.80;;;24.30;99.90;;;;;;5062334;28;20502;-62
2021/07/14 00:52:19;;;;;;;17.73;16.13;;;24.20;99.90;;;;;;5072720;28;20524;-62
2021/07/14 00:54:47;;;;;;;16.83;15.53;;;24.20;99.90;;;;;;5063541;28;20459;-64
2021/07/14 00:57:17;;;;;;;16.07;14.77;;;24.20;99.90;;;;;;5069697;28;20474;-62
2021/07/14 00:59:44;;;;;;;17.23;15.90;;;24.20;99.90;;;;;;5072485;28;20543;-63
2021/07/14 01:02:12;;;;;;;16.90;15.10;;;24.10;99.90;;;;;;5072697;28;20462;-63
2021/07/14 01:04:41;;;;;;;15.13;13.83;;;24.10;99.90;;;;;;5072394;28;20474;-63
2021/07/14 01:07:13;;;;;;;16.43;15.13;;;24.10;99.90;;;;;;5072486;28;20467;-62
2021/07/14 01:09:46;;;;;;;16.77;15.40;;;24.10;99.90;;;;;;5072089;28;20489;-62
2021/07/14 01:12:21;;;;;;;14.83;13.73;;;24.00;99.90;;;;;;5071446;28;20462;-62
2021/07/14 01:14:56;;;;;;;16.73;15.23;;;24.00;99.90;;;;;;5072201;28;20461;-63
2021/07/14 01:17:25;;;;;;;17.27;15.87;;;24.00;99.90;;;;;;5064018;28;20474;-62
2021/07/14 01:20:19;;;;;;;16.50;15.13;;;24.00;99.90;;;;;;5067855;28;20473;-63
2021/07/14 01:22:58;;;;;;;16.47;15.17;;;23.90;99.90;;;;;;5064885;28;21019;-63
2021/07/14 01:25:38;;;;;;;16.97;15.57;;;23.90;99.90;;;;;;5072513;28;20478;-62
2021/07/14 01:28:06;;;;;;;15.03;13.80;;;23.90;99.90;;;;;;5072275;28;20462;-63
2021/07/14 01:30:34;;;;;;;16.80;15.30;;;23.80;99.90;;;;;;5072371;28;20500;-63
2021/07/14 01:33:03;;;;;;;16.97;15.60;;;23.80;99.90;;;;;;5071068;28;20473;-61
2021/07/14 01:35:33;;;;;;;18.97;17.20;;;23.80;99.90;;;;;;5072311;28;20470;-64
2021/07/14 01:38:02;;;;;;;18.20;16.70;;;23.80;99.90;;;;;;5070499;28;20474;-63
2021/07/14 01:40:30;;;;;;;18.73;17.30;;;23.70;99.90;;;;;;5072268;28;20470;-63
2021/07/14 01:43:00;;;;;;;17.83;16.13;;;23.70;99.90;;;;;;5071785;28;20474;-63
2021/07/14 01:45:32;;;;;;;19.93;18.13;;;23.70;99.90;;;;;;5071119;28;20463;-63
2021/07/14 01:48:01;;;;;;;21.07;19.37;;;23.70;99.90;;;;;;5064116;28;20980;-63
2021/07/14 01:50:31;;;;;;;21.07;19.40;;;23.70;99.90;;;;;;5066584;28;20467;-63
2021/07/14 01:52:59;;;;;;;20.93;19.23;;;23.70;99.90;;;;;;5072004;28;20462;-63
2021/07/14 01:55:27;;;;;;;21.73;19.93;;;23.70;99.90;;;;;;5059560;28;20837;-63
2021/07/14 01:57:57;;;;;;;21.60;19.47;;;23.60;99.90;;;;;;5071642;28;20535;-63
2021/07/14 02:00:25;;;;;;;20.93;18.93;;;23.60;99.90;;;;;;5071625;28;20548;-63
2021/07/14 02:03:04;;;;;;;21.27;19.00;;;23.60;99.90;;;;;;5071502;28;20527;-63
2021/07/14 02:05:32;;;;;;;18.13;16.73;;;23.60;99.90;;;;;;5071971;28;20566;-64
2021/07/14 02:08:00;;;;;;;20.13;18.20;;;23.60;99.90;;;;;;5071693;28;20470;-63
2021/07/14 02:10:28;;;;;;;19.80;18.07;;;23.60;99.90;;;;;;5071925;28;20466;-63
2021/07/14 02:12:55;;;;;;;20.17;18.27;;;23.50;99.90;;;;;;5071713;28;20471;-63
2021/07/14 02:15:26;;;;;;;20.73;18.93;;;23.50;99.90;;;;;;5070853;28;20489;-63
2021/07/14 02:17:56;;;;;;;20.93;19.03;;;23.50;99.90;;;;;;5065082;28;20466;-63
2021/07/14 02:20:23;;;;;;;22.00;20.00;;;23.50;99.90;;;;;;5072029;28;20462;-63
2021/07/14 02:22:52;;;;;;;18.40;16.80;;;23.50;99.90;;;;;;5067122;28;20474;-63
2021/07/14 02:25:20;;;;;;;18.83;17.13;;;23.50;99.90;;;;;;5071834;28;20477;-63
2021/07/14 02:27:47;;;;;;;20.20;18.27;;;23.40;99.90;;;;;;5071354;28;20475;-63
2021/07/14 02:30:19;;;;;;;19.27;17.70;;;23.40;99.90;;;;;;5068316;28;20466;-63
2021/07/14 02:32:48;;;;;;;19.87;18.27;;;23.40;99.90;;;;;;5070710;28;20785;-64
2021/07/14 02:35:17;;;;;;;20.70;18.90;;;23.40;99.90;;;;;;5075584;28;20960;-63
2021/07/14 02:37:55;;;;;;;17.73;16.33;;;23.40;99.90;;;;;;5075282;28;20470;-63
2021/07/14 02:40:26;;;;;;;18.50;16.93;;;23.40;99.90;;;;;;5073868;28;20497;-63
2021/07/14 02:42:57;;;;;;;19.50;17.87;;;23.40;99.90;;;;;;5072828;28;21600;-63
2021/07/14 02:45:32;;;;;;;17.67;16.13;;;23.40;99.90;;;;;;5075254;28;21055;-63
2021/07/14 02:48:09;;;;;;;17.00;15.40;;;23.40;99.90;;;;;;5071289;28;20450;-63
2021/07/14 02:50:38;;;;;;;18.53;17.10;;;23.40;99.90;;;;;;5072351;28;20959;-63
2021/07/14 02:53:09;;;;;;;20.10;18.10;;;23.40;99.90;;;;;;5074496;28;20474;-63
2021/07/14 02:55:40;;;;;;;19.43;17.57;;;23.40;99.90;;;;;;5074541;28;20458;-63
2021/07/14 02:58:09;;;;;;;17.57;15.83;;;23.40;99.90;;;;;;5074868;28;20493;-63
2021/07/14 03:00:38;;;;;;;18.30;16.70;;;23.40;99.90;;;;;;5074826;28;20790;-62
2021/07/14 03:03:07;;;;;;;19.63;17.83;;;23.40;99.90;;;;;;5075033;28;20550;-63
2021/07/14 03:05:35;;;;;;;19.57;17.67;;;23.30;99.90;;;;;;5073279;28;20977;-63
2021/07/14 03:08:07;;;;;;;18.90;17.10;;;23.30;99.90;;;;;;5071445;28;20593;-63
2021/07/14 03:10:34;;;;;;;18.03;16.40;;;23.30;99.90;;;;;;5070339;28;20470;-63
2021/07/14 03:13:04;;;;;;;17.47;15.93;;;23.30;99.90;;;;;;5070769;28;20474;-63
2021/07/14 03:15:31;;;;;;;17.80;16.03;;;23.40;99.90;;;;;;5072507;28;20474;-63
2021/07/14 03:17:59;;;;;;;18.97;17.47;;;23.40;99.90;;;;;;5071228;28;20478;-64
2021/07/14 03:20:27;;;;;;;16.17;14.87;;;23.30;99.90;;;;;;5071740;28;20524;-64
2021/07/14 03:22:54;;;;;;;15.03;13.63;;;23.40;99.90;;;;;;5071442;28;20470;-63
2021/07/14 03:25:23;;;;;;;16.67;15.17;;;23.40;99.90;;;;;;5072072;28;20535;-64
2021/07/14 03:27:52;;;;;;;18.23;16.53;;;23.30;99.90;;;;;;5070195;28;20700;-63
2021/07/14 03:30:21;;;;;;;16.10;14.70;;;23.30;99.90;;;;;;5072189;28;20940;-63
2021/07/14 03:32:49;;;;;;;15.17;13.77;;;23.30;99.90;;;;;;5073592;28;20536;-63
2021/07/14 03:35:17;;;;;;;14.30;12.90;;;23.30;99.90;;;;;;5065502;28;20470;-63
2021/07/14 03:37:48;;;;;;;17.23;13.30;;;23.30;99.90;;;;;;5073468;28;20539;-63
2021/07/14 03:40:16;;;;;;;15.63;14.13;;;23.30;99.90;;;;;;5074315;28;20978;-63
2021/07/14 03:42:48;;;;;;;14.30;13.10;;;23.30;99.90;;;;;;5073109;28;20528;-63
2021/07/14 03:45:15;;;;;;;15.10;13.60;;;23.30;99.90;;;;;;5074078;28;20474;-63
2021/07/14 03:47:42;;;;;;;16.93;14.20;;;23.20;99.90;;;;;;5069859;28;20821;-63
2021/07/14 03:50:11;;;;;;;13.60;12.30;;;23.20;99.90;;;;;;5074199;28;20537;-63
2021/07/14 03:52:39;;;;;;;14.37;13.00;;;23.20;99.90;;;;;;5074174;28;20478;-63
2021/07/14 03:55:09;;;;;;;13.37;12.00;;;23.20;99.90;;;;;;5073671;28;20535;-63
2021/07/14 03:57:36;;;;;;;14.60;12.10;;;23.20;99.90;;;;;;5063159;28;20554;-63
2021/07/14 04:00:06;;;;;;;16.83;13.70;;;23.10;99.90;;;;;;5052080;28;20459;-63
2021/07/14 04:02:37;;;;;;;13.20;11.90;;;23.20;99.90;;;;;;5052808;28;20467;-62
2021/07/14 04:05:04;;;;;;;12.33;11.23;;;23.10;99.90;;;;;;5053817;28;20466;-62
2021/07/14 04:07:34;;;;;;;12.80;11.57;;;23.10;99.90;;;;;;5056662;28;20478;-62
2021/07/14 04:10:02;;;;;;;13.87;12.47;;;23.10;99.90;;;;;;5052022;28;20499;-63
2021/07/14 04:12:29;;;;;;;12.43;11.30;;;23.10;99.90;;;;;;5050978;28;20468;-62
2021/07/14 04:14:56;;;;;;;11.10;10.03;;;23.10;99.90;;;;;;5050385;28;20527;-63
2021/07/14 04:17:25;;;;;;;13.20;11.90;;;23.10;99.90;;;;;;5050467;28;21004;-63
2021/07/14 04:19:51;;;;;;;12.60;11.17;;;23.10;99.90;;;;;;5049985;28;20471;-63
2021/07/14 04:22:18;;;;;;;11.33;10.20;;;23.10;99.90;;;;;;5051414;28;21019;-62
2021/07/14 04:24:45;;;;;;;14.37;10.97;;;23.10;99.90;;;;;;5051664;28;20475;-63
2021/07/14 04:27:12;;;;;;;13.13;11.80;;;23.10;99.90;;;;;;5053173;28;20486;-63
2021/07/14 04:29:41;;;;;;;10.97;9.80;;;23.00;99.90;;;;;;5053695;28;20475;-63
2021/07/14 04:32:08;;;;;;;11.77;10.70;;;23.00;99.90;;;;;;5053175;28;20459;-60
2021/07/14 04:34:37;;;;;;;16.77;12.33;;;23.00;99.90;;;;;;5071605;28;20524;-64
2021/07/14 04:37:04;;;;;;;13.40;11.00;;;23.00;99.90;;;;;;5072984;28;20471;-62
2021/07/14 04:39:31;;;;;;;11.30;10.33;;;23.00;99.90;;;;;;5073558;28;20479;-62
2021/07/14 04:41:58;;;;;;;13.43;11.50;;;23.00;99.90;;;;;;5072981;28;20866;-61
2021/07/14 04:44:34;;;;;;;16.03;13.67;;;23.00;99.90;;;;;;5073095;28;20462;-62
2021/07/14 04:47:01;;;;;;;14.07;12.60;;;22.90;99.90;;;;;;5072917;28;20462;-62
2021/07/14 04:49:28;;;;;;;13.43;12.23;;;22.90;99.90;;;;;;5072948;28;20474;-61
2021/07/14 04:51:57;;;;;;;14.97;13.33;;;22.90;99.90;;;;;;5072756;28;20470;-61
2021/07/14 04:54:24;;;;;;;13.07;11.97;;;22.90;99.90;;;;;;5072267;28;20999;-61
2021/07/14 04:56:51;;;;;;;14.23;12.83;;;22.90;99.90;;;;;;5073052;28;20471;-61
2021/07/14 04:59:18;;;;;;;18.03;13.73;;;22.80;99.90;;;;;;5073052;28;20545;-62
2021/07/14 05:01:46;;;;;;;18.30;13.50;;;22.80;99.90;;;;;;5073135;28;20972;-61
2021/07/14 05:04:13;;;;;;;17.13;15.43;;;22.80;99.90;;;;;;5072593;28;21245;-62
2021/07/14 05:06:40;;;;;;;13.93;12.50;;;22.70;99.90;;;;;;5063952;28;20490;-61
2021/07/14 05:09:09;;;;;;;15.53;14.03;;;22.70;99.90;;;;;;5072536;28;20494;-61
2021/07/14 05:11:36;;;;;;;15.60;13.60;;;22.70;99.90;;;;;;5072921;28;20466;-62
2021/07/14 05:14:03;;;;;;;16.50;14.63;;;22.70;99.90;;;;;;5072448;28;20470;-61
2021/07/14 05:16:30;;;;;;;20.97;13.97;;;22.70;99.90;;;;;;5073206;28;20466;-61
2021/07/14 05:18:58;;;;;;;13.50;12.10;;;22.70;99.90;;;;;;5072099;28;21018;-61
2021/07/14 05:21:24;;;;;;;15.57;14.00;;;22.70;99.90;;;;;;5072972;28;20473;-61
2021/07/14 05:23:51;;;;;;;17.77;15.90;;;22.80;99.90;;;;;;5072698;28;20470;-61
2021/07/14 05:26:20;;;;;;;18.30;14.30;;;22.80;99.90;;;;;;5072542;28;20529;-61
2021/07/14 05:28:47;;;;;;;19.57;14.90;;;22.80;99.90;;;;;;5072730;28;20481;-61
2021/07/14 05:31:14;;;;;;;19.13;17.10;;;22.80;99.90;;;;;;5061075;28;20973;-61
2021/07/14 05:33:42;;;;;;;21.10;16.87;;;22.80;99.90;;;;;;5063296;28;21030;-61
2021/07/14 05:36:11;;;;;;;15.40;12.97;;;22.90;99.90;;;;;;5072337;28;20551;-62
2021/07/14 05:38:38;;;;;;;19.63;15.43;;;22.90;99.90;;;;;;5072589;28;20956;-61
2021/07/14 05:41:05;;;;;;;18.90;16.90;;;22.90;99.90;;;;;;5072178;28;20947;-62
2021/07/14 05:43:33;;;;;;;17.47;15.67;;;23.00;99.90;;;;;;5072686;28;20527;-61
2021/07/14 05:46:00;;;;;;;18.90;16.90;;;22.90;99.90;;;;;;5071971;28;20492;-62
2021/07/14 05:48:27;;;;;;;18.03;15.30;;;23.00;99.90;;;;;;5052202;28;20467;-61
2021/07/14 05:50:55;;;;;;;15.40;13.90;;;23.00;99.90;;;;;;5052299;28;20521;-62
2021/07/14 05:53:22;;;;;;;16.90;15.30;;;23.10;99.90;;;;;;5052435;28;20457;-62
2021/07/14 05:55:49;;;;;;;19.00;16.27;;;23.20;99.90;;;;;;5070076;28;20956;-61
2021/07/14 05:58:16;;;;;;;15.07;13.57;;;23.30;99.90;;;;;;5071907;28;20459;-62
2021/07/14 06:00:45;;;;;;;18.17;16.33;;;23.30;99.90;;;;;;5072362;28;20470;-61
2021/07/14 06:03:12;;;;;;;16.67;14.97;;;23.40;99.90;;;;;;5071915;28;20466;-61
2021/07/14 06:05:39;;;;;;;14.43;13.13;;;23.50;99.90;;;;;;5067957;28;20537;-62
2021/07/14 06:08:07;;;;;;;13.37;12.10;;;23.50;99.90;;;;;;5071725;28;20466;-62
2021/07/14 06:10:34;;;;;;;15.83;14.53;;;23.60;99.90;;;;;;5076234;28;20484;-62
2021/07/14 06:13:01;;;;;;;14.40;13.20;;;23.60;99.90;;;;;;5075984;28;20474;-61
2021/07/14 06:15:28;;;;;;;15.77;14.33;;;23.70;99.90;;;;;;5076158;28;20469;-61
2021/07/14 06:17:57;;;;;;;16.03;14.53;;;23.70;99.90;;;;;;5075410;28;20512;-61
2021/07/14 06:20:24;;;;;;;13.50;12.10;;;23.70;99.90;;;;;;5076157;28;20732;-61
2021/07/14 06:22:51;;;;;;;22.57;20.40;;;23.80;99.90;;;;;;5076005;28;20470;-61
2021/07/14 06:25:18;;;;;;;18.33;16.60;;;23.80;99.90;;;;;;5075311;28;20462;-62
2021/07/14 06:27:46;;;;;;;18.50;16.60;;;23.80;99.90;;;;;;5075888;28;20470;-61
2021/07/14 06:30:15;;;;;;;18.57;16.83;;;23.80;99.90;;;;;;5072409;28;20502;-61
2021/07/14 06:32:42;;;;;;;16.60;15.20;;;23.80;99.90;;;;;;5058383;28;20867;-61
2021/07/14 06:35:13;;;;;;;17.43;15.83;;;23.90;99.90;;;;;;5075595;28;20822;-61
2021/07/14 06:37:40;;;;;;;19.70;17.97;;;23.90;99.90;;;;;;5075558;28;20817;-61
2021/07/14 06:40:09;;;;;;;18.27;16.67;;;23.80;99.90;;;;;;5075015;28;20499;-62
2021/07/14 06:42:36;;;;;;;20.90;18.97;;;23.90;99.90;;;;;;5075864;28;20462;-62
2021/07/14 06:45:04;;;;;;;19.97;16.97;;;23.90;99.90;;;;;;5075129;28;20461;-61
2021/07/14 06:47:31;;;;;;;17.60;16.03;;;23.90;99.90;;;;;;5075374;28;20974;-61
2021/07/14 06:49:58;;;;;;;19.40;17.47;;;23.90;99.90;;;;;;5075268;28;21022;-61
2021/07/14 06:52:26;;;;;;;18.37;16.80;;;23.90;99.90;;;;;;5075466;28;20466;-61
2021/07/14 06:54:53;;;;;;;17.77;16.00;;;23.90;99.90;;;;;;5075385;28;20860;-61
2021/07/14 06:57:20;;;;;;;16.90;15.30;;;23.90;99.90;;;;;;5075180;28;20466;-62
2021/07/14 06:59:47;;;;;;;18.00;15.70;;;23.90;99.90;;;;;;5075212;28;20473;-62
2021/07/14 07:02:14;;;;;;;18.10;16.40;;;23.90;99.90;;;;;;5074964;28;20855;-61
2021/07/14 07:04:41;;;;;;;16.60;15.20;;;23.90;99.90;;;;;;5075307;28;20481;-62
2021/07/14 07:07:08;;;;;;;16.30;15.00;;;23.90;99.90;;;;;;5057480;28;20472;-62
2021/07/14 07:09:36;;;;;;;16.47;14.97;;;23.80;99.90;;;;;;5055165;28;20496;-61
2021/07/14 07:12:03;;;;;;;16.87;15.47;;;23.80;99.90;;;;;;5054693;28;20493;-62
2021/07/14 07:14:30;;;;;;;15.30;13.80;;;23.80;99.90;;;;;;5055097;28;20466;-62
2021/07/14 07:16:57;;;;;;;18.97;17.23;;;23.80;99.90;;;;;;5054600;28;20505;-61
2021/07/14 07:19:26;;;;;;;19.93;18.00;;;23.90;99.90;;;;;;5053923;28;20458;-61
2021/07/14 07:21:53;;;;;;;18.03;16.43;;;23.90;99.90;;;;;;5054987;28;20868;-60
2021/07/14 07:24:20;;;;;;;19.30;17.60;;;24.00;99.90;;;;;;5054450;28;20467;-61
2021/07/14 07:26:49;;;;;;;16.30;15.00;;;24.00;99.90;;;;;;5054660;28;21001;-62
2021/07/14 07:29:17;;;;;;;18.03;16.30;;;24.10;99.90;;;;;;5054375;28;20482;-61
2021/07/14 07:31:44;;;;;;;18.70;16.90;;;24.20;99.90;;;;;;5069991;28;20486;-61
2021/07/14 07:34:11;;;;;;;16.03;14.83;;;24.20;99.90;;;;;;5074023;28;20954;-61
2021/07/14 07:36:38;;;;;;;17.53;15.93;;;24.20;99.90;;;;;;5074804;28;20466;-62
2021/07/14 07:39:06;;;;;;;17.73;16.13;;;24.30;99.90;;;;;;5074441;28;20496;-62
2021/07/14 07:41:33;;;;;;;27.23;24.63;;;24.30;99.90;;;;;;5074536;28;20537;-61
2021/07/14 07:44:02;;;;;;;18.17;16.67;;;24.30;99.90;;;;;;5074479;28;20466;-61
2021/07/14 07:46:29;;;;;;;16.07;14.67;;;24.40;99.90;;;;;;5074150;28;21756;-61
2021/07/14 07:48:56;;;;;;;15.10;13.90;;;24.40;99.90;;;;;;5074110;28;20478;-62
2021/07/14 07:51:23;;;;;;;16.17;14.63;;;24.40;99.90;;;;;;5073982;28;20549;-62
2021/07/14 07:53:50;;;;;;;15.80;14.50;;;24.50;99.90;;;;;;5074180;28;20471;-62
2021/07/14 07:56:17;;;;;;;14.83;13.60;;;24.50;99.90;;;;;;5073827;28;20569;-62
2021/07/14 07:58:44;;;;;;;14.47;13.27;;;24.50;99.90;;;;;;5074212;28;20511;-62
2021/07/14 08:01:13;;;;;;;16.47;15.07;;;24.60;99.90;;;;;;5073601;28;20490;-62
2021/07/14 08:03:40;;;;;;;14.33;13.20;;;24.70;99.90;;;;;;5073978;28;20476;-62
2021/07/14 08:06:07;;;;;;;15.17;13.37;;;24.70;99.90;;;;;;5064882;28;20570;-61
2021/07/14 08:08:34;;;;;;;15.07;13.57;;;24.80;99.90;;;;;;5053952;28;21026;-62
2021/07/14 08:11:01;;;;;;;14.53;13.40;;;24.80;99.90;;;;;;5054099;28;20475;-63
2021/07/14 08:13:29;;;;;;;14.70;13.53;;;24.80;99.90;;;;;;5053622;28;20463;-62
2021/07/14 08:15:56;;;;;;;15.07;13.77;;;24.90;99.90;;;;;;5053822;28;20475;-62
2021/07/14 08:18:25;;;;;;;15.00;13.70;;;24.90;99.90;;;;;;5052967;28;20554;-62
2021/07/14 08:20:52;;;;;;;12.90;11.80;;;25.00;99.90;;;;;;5053822;28;20463;-62
2021/07/14 08:23:20;;;;;;;15.87;14.47;;;25.00;99.90;;;;;;5053331;28;20468;-62
2021/07/14 08:25:47;;;;;;;16.87;15.40;;;25.10;99.90;;;;;;5053325;28;20559;-62
2021/07/14 08:28:14;;;;;;;15.90;14.60;;;25.10;99.90;;;;;;5052948;28;20463;-62
2021/07/14 08:30:42;;;;;;;14.30;13.00;;;25.10;99.90;;;;;;5053364;28;20992;-62
2021/07/14 08:33:08;;;;;;;16.80;15.30;;;25.10;99.90;;;;;;5059083;28;20474;-62
2021/07/14 08:35:39;;;;;;;17.50;16.00;;;25.20;99.90;;;;;;5073711;28;20870;-62
2021/07/14 08:38:06;;;;;;;15.07;13.70;;;25.20;99.90;;;;;;5073207;28;20485;-62
2021/07/14 08:40:33;;;;;;;15.10;13.80;;;25.10;99.90;;;;;;5073165;28;20462;-62
2021/07/14 08:43:02;;;;;;;12.77;11.77;;;25.10;99.90;;;;;;5073332;28;20989;-62
2021/07/14 08:45:29;;;;;;;15.90;14.60;;;25.20;99.90;;;;;;5072746;28;20790;-63
2021/07/14 08:47:56;;;;;;;15.43;13.90;;;25.20;99.90;;;;;;5072816;28;20477;-62
2021/07/14 08:50:24;;;;;;;13.50;12.40;;;25.20;99.90;;;;;;5072884;28;20476;-62
2021/07/14 08:52:58;;;;;;;14.23;12.90;;;25.20;99.90;;;;;;5073129;28;20463;-62
2021/07/14 08:55:25;;;;;;;12.27;11.23;;;25.20;99.90;;;;;;5072545;28;20457;-62
2021/07/14 08:57:55;;;;;;;12.30;11.40;;;25.20;99.90;;;;;;5073065;28;20684;-62
2021/07/14 09:00:26;;;;;;;11.83;10.90;;;25.20;99.90;;;;;;5072710;28;20466;-63
2021/07/14 09:02:53;;;;;;;13.10;11.90;;;25.20;99.90;;;;;;5072698;28;20470;-62
2021/07/14 09:05:19;;;;;;;12.90;11.90;;;25.20;99.90;;;;;;5070378;28;20462;-62
2021/07/14 09:07:46;;;;;;;15.20;14.00;;;25.30;99.90;;;;;;5066184;28;20540;-63
2021/07/14 09:10:15;;;;;;;15.03;13.83;;;25.30;99.90;;;;;;5072560;28;20545;-62
2021/07/14 09:12:45;;;;;;;15.30;13.90;;;25.30;99.90;;;;;;5073166;28;20474;-63
2021/07/14 09:15:14;;;;;;;13.63;12.50;;;25.40;99.90;;;;;;5072445;28;20880;-62
2021/07/14 09:17:47;;;;;;;15.20;14.00;;;25.40;99.90;;;;;;5072588;28;20478;-63
2021/07/14 09:20:15;;;;;;;14.90;13.67;;;25.50;99.90;;;;;;5072255;28;20975;-62
2021/07/14 09:22:43;;;;;;;16.03;14.80;;;25.50;99.90;;;;;;5072987;28;20469;-62
2021/07/14 09:25:15;;;;;;;15.87;14.47;;;25.60;99.90;;;;;;5072501;28;20972;-62
2021/07/14 09:27:54;;;;;;;17.23;15.93;;;25.60;99.90;;;;;;5072320;28;20477;-63
2021/07/14 09:30:23;;;;;;;15.83;14.53;;;25.70;99.90;;;;;;5068601;28;20487;-62
2021/07/14 09:32:53;;;;;;;14.77;13.73;;;25.80;99.90;;;;;;5056208;28;20474;-63
2021/07/14 09:35:29;;;;;;;13.87;12.77;;;25.90;99.90;;;;;;5072456;28;20858;-63
2021/07/14 09:37:58;;;;;;;14.37;13.27;;;26.00;99.90;;;;;;5072501;28;20527;-63
2021/07/14 09:40:27;;;;;;;14.87;13.57;;;26.00;99.90;;;;;;5073589;28;20549;-63
2021/07/14 09:42:57;;;;;;;13.70;12.63;;;26.10;99.90;;;;;;5079378;28;20470;-63
2021/07/14 09:45:52;;;;;;;14.57;13.47;;;26.10;99.90;;;;;;5078749;28;20489;-62
2021/07/14 09:48:21;;;;;;;14.90;13.70;;;26.10;99.90;;;;;;5078628;28;20851;-63
2021/07/14 09:50:51;;;;;;;16.13;14.73;;;26.10;99.90;;;;;;5079341;28;20469;-62
2021/07/14 09:53:20;;;;;;;15.27;13.93;;;26.10;99.90;;;;;;5079182;28;20527;-62
2021/07/14 09:55:51;;;;;;;13.50;12.50;;;26.20;99.90;;;;;;5078815;28;20465;-62
2021/07/14 09:58:22;;;;;;;15.53;14.33;;;26.20;99.90;;;;;;5079149;28;20473;-62
2021/07/14 10:00:51;;;;;;;14.33;12.93;;;26.30;99.90;;;;;;5078873;28;20450;-62
2021/07/14 10:03:27;;;;;;;14.50;13.50;;;26.30;99.90;;;;;;5079036;28;20458;-62
2021/07/14 10:06:03;;;;;;;12.83;11.93;;;26.30;99.90;;;;;;5071754;28;21282;-62
2021/07/14 10:08:30;;;;;;;13.67;12.47;;;26.30;99.90;;;;;;5058491;28;20470;-63
2021/07/14 10:11:18;;;;;;;14.47;13.17;;;26.30;99.90;;;;;;5059311;28;20470;-62
2021/07/14 10:13:55;;;;;;;11.63;10.73;;;26.30;99.90;;;;;;5058628;28;20509;-62
2021/07/14 10:16:24;;;;;;;11.43;10.50;;;26.30;99.90;;;;;;5059073;28;20840;-62
2021/07/14 10:18:59;;;;;;;11.90;10.80;;;26.30;99.90;;;;;;5058162;28;20454;-63
2021/07/14 10:21:28;;;;;;;9.13;8.43;;;26.30;99.90;;;;;;5058944;28;20473;-62
2021/07/14 10:23:55;;;;;;;10.27;9.53;;;26.30;99.90;;;;;;5058556;28;20467;-63
2021/07/14 10:26:24;;;;;;;10.10;9.30;;;26.30;99.90;;;;;;5058883;28;20478;-63
2021/07/14 10:28:51;;;;;;;11.03;10.00;;;26.30;99.90;;;;;;5058239;28;20457;-62
2021/07/14 10:31:21;;;;;;;10.73;9.90;;;26.40;99.90;;;;;;5070665;28;20462;-63
2021/07/14 10:33:50;;;;;;;11.37;10.37;;;26.40;99.90;;;;;;5078103;28;20500;-62
2021/07/14 10:36:20;;;;;;;9.37;8.67;;;26.30;99.90;;;;;;5078581;28;21026;-63
2021/07/14 10:38:49;;;;;;;10.73;9.93;;;26.30;99.90;;;;;;5078512;28;20497;-63
2021/07/14 10:41:23;;;;;;;10.63;9.93;;;26.30;99.90;;;;;;5078879;28;20474;-63
2021/07/14 10:43:51;;;;;;;10.63;9.70;;;26.30;99.90;;;;;;5078209;28;20789;-63
2021/07/14 10:46:21;;;;;;;10.30;9.60;;;26.40;99.90;;;;;;5078596;28;20968;-63
2021/07/14 10:48:48;;;;;;;11.80;10.67;;;26.30;99.90;;;;;;5078294;28;20562;-63
2021/07/14 10:51:15;;;;;;;11.30;10.30;;;26.40;99.90;;;;;;5078672;28;20462;-63
2021/07/14 10:53:44;;;;;;;11.07;10.17;;;26.30;99.90;;;;;;5075177;28;20470;-63
2021/07/14 10:56:13;;;;;;;10.40;9.70;;;26.30;99.90;;;;;;5055501;28;20794;-63
2021/07/14 10:58:42;;;;;;;11.03;10.13;;;26.40;99.90;;;;;;5054751;28;20817;-62
2021/07/14 11:01:10;;;;;;;12.50;11.30;;;26.50;99.90;;;;;;5055846;28;20451;-62
2021/07/14 11:03:44;;;;;;;10.60;9.90;;;26.60;99.90;;;;;;5054979;28;20517;-62
2021/07/14 11:06:13;;;;;;;12.30;11.40;;;26.60;99.90;;;;;;5060029;28;20483;-65
2021/07/14 11:08:42;;;;;;;11.07;10.00;;;26.60;99.90;;;;;;5074547;28;20847;-62
2021/07/14 11:11:10;;;;;;;10.50;9.70;;;26.60;99.90;;;;;;5075156;28;20550;-63
2021/07/14 11:13:39;;;;;;;10.23;9.57;;;26.60;99.90;;;;;;5074748;28;20462;-63
2021/07/14 11:16:33;;;;;;;10.70;9.80;;;26.60;99.90;;;;;;5074988;28;20458;-63
2021/07/14 11:19:03;;;;;;;8.77;8.00;;;26.60;99.90;;;;;;5074533;28;20458;-62
2021/07/14 11:21:54;;;;;;;8.07;7.57;;;26.60;99.90;;;;;;5074903;28;20980;-62
2021/07/14 11:24:53;;;;;;;7.67;6.87;;;26.60;99.90;;;;;;5074916;28;20458;-62
2021/07/14 11:27:54;;;;;;;8.10;7.40;;;26.60;99.90;;;;;;5074151;28;20477;-62
2021/07/14 11:30:41;;;;;;;9.33;8.60;;;26.60;99.90;;;;;;5070338;28;20541;-62
2021/07/14 11:33:11;;;;;;;8.63;7.73;;;26.60;99.90;;;;;;5060812;28;20467;-62
2021/07/14 11:35:49;;;;;;;8.97;8.07;;;26.60;99.90;;;;;;5074325;28;20466;-62
2021/07/14 11:38:19;;;;;;;12.20;8.37;;;26.50;99.90;;;;;;5074365;28;20474;-62
2021/07/14 11:40:48;;;;;;;9.30;8.40;;;26.50;99.90;;;;;;5074318;28;20458;-62
2021/07/14 11:43:18;;;;;;;8.93;7.97;;;26.50;99.90;;;;;;5074512;28;20967;-62
2021/07/14 11:45:48;;;;;;;8.77;7.40;;;26.40;99.90;;;;;;5054113;28;20459;-62
2021/07/14 11:48:25;;;;;;;10.10;9.10;;;26.40;99.90;;;;;;5072768;28;20972;-62
2021/07/14 11:50:55;;;;;;;9.00;7.93;;;26.40;99.90;;;;;;5074181;28;20457;-62
2021/07/14 11:53:31;;;;;;;9.07;8.07;;;26.50;99.90;;;;;;5074349;28;20482;-61
2021/07/14 11:56:00;;;;;;;10.23;7.80;;;26.50;99.90;;;;;;5058953;28;21405;-62
2021/07/14 11:59:03;;;;;;;7.10;6.43;;;26.50;99.90;;;;;;5063515;28;20546;-62
2021/07/14 12:02:01;;;;;;;6.90;6.40;;;26.60;99.90;;;;;;5055019;28;20534;-62
2021/07/14 12:04:37;;;;;;;7.67;7.17;;;26.60;99.90;;;;;;5067354;28;20472;-62
2021/07/14 12:07:13;;;;;;;8.60;7.47;;;26.70;99.90;;;;;;5059745;28;20562;-62
2021/07/14 12:09:49;;;;;;;7.57;6.97;;;26.70;99.90;;;;;;5053150;28;20458;-62
2021/07/14 12:12:22;;;;;;;9.30;8.30;;;26.70;99.90;;;;;;5056057;28;20542;-62
2021/07/14 12:14:51;;;;;;;8.77;7.63;;;26.70;99.90;;;;;;5056806;28;20494;-62
2021/07/14 12:17:21;;;;;;;8.43;7.20;;;26.70;99.90;;;;;;5063980;28;20505;-62
2021/07/14 12:19:50;;;;;;;7.93;7.23;;;26.70;99.90;;;;;;5056907;28;20467;-62
2021/07/14 12:22:19;;;;;;;7.83;7.27;;;26.70;99.90;;;;;;5057042;28;20474;-62
2021/07/14 12:24:49;;;;;;;7.80;6.90;;;26.70;99.90;;;;;;5071880;28;20520;-62
2021/07/14 12:27:21;;;;;;;7.67;7.07;;;26.80;99.90;;;;;;5053404;28;20554;-62
2021/07/14 12:29:52;;;;;;;7.83;7.20;;;26.80;99.90;;;;;;5053226;28;20455;-62
2021/07/14 12:32:38;;;;;;;7.10;6.60;;;26.80;99.90;;;;;;5051705;28;20466;-62
2021/07/14 12:35:11;;;;;;;7.83;7.23;;;26.90;99.90;;;;;;5052465;28;20459;-62
2021/07/14 12:37:43;;;;;;;7.30;6.80;;;26.90;99.90;;;;;;5052682;28;20849;-62
2021/07/14 12:40:11;;;;;;;8.50;7.80;;;26.90;99.90;;;;;;5052023;28;20475;-62
2021/07/14 12:42:45;;;;;;;9.63;7.00;;;26.90;99.90;;;;;;5055657;28;20476;-62
2021/07/14 12:45:22;;;;;;;7.07;6.47;;;26.90;99.90;;;;;;5060029;28;20545;-62
2021/07/14 12:47:49;;;;;;;6.63;6.13;;;26.90;99.90;;;;;;5065294;28;20811;-63